Time;durP1;ratioP1;P1;durP2;ratioP2;P2;SDS_P1;SDS_P2;PMS_P1;PMS_P2;Temp;Humidity;BMP_temperature;BMP_pressure;BME280_temperature;BME280_humidity;BME280_pressure;Samples;Min_cycle;Max_cycle;Signal;HPM_P1;HPM_P2
2023/04/01 00:00:18;;;;;;;7.30;1.35;;;7.70;93.90;;;;;;4970465;28;20023;-71
2023/04/01 00:02:43;;;;;;;1.55;1.08;;;7.60;96.00;;;;;;4969956;28;20034;-71
2023/04/01 00:05:10;;;;;;;1.92;1.85;;;7.80;99.90;;;;;;4970437;28;20027;-71
2023/04/01 00:07:37;;;;;;;0.90;0.90;;;7.50;96.70;;;;;;4970516;28;20027;-71
2023/04/01 00:10:05;;;;;;;8.05;1.30;;;7.40;97.00;;;;;;4970268;28;20049;-72
2023/04/01 00:12:30;;;;;;;;;;;7.60;95.00;;;;;;4970666;28;20019;-71
2023/04/01 00:14:56;;;;;;;0.93;0.88;;;;;;;;;;4970201;28;19921;-72
2023/04/01 00:17:22;;;;;;;3.38;0.95;;;7.50;93.90;;;;;;4969661;28;20034;-71
2023/04/01 00:19:48;;;;;;;2.67;1.58;;;;;;;;;;4970441;28;20058;-72
2023/04/01 00:22:14;;;;;;;1.05;0.98;;;7.30;99.90;;;;;;4969685;28;20030;-72
2023/04/01 00:24:40;;;;;;;2.80;0.80;;;7.70;96.90;;;;;;4970634;28;20031;-72
2023/04/01 00:27:07;;;;;;;1.15;1.15;;;;;;;;;;4969943;28;20030;-73
2023/04/01 00:29:33;;;;;;;2.72;0.75;;;7.80;94.60;;;;;;4970245;28;20035;-72
2023/04/01 00:31:59;;;;;;;1.48;0.80;;;7.90;99.90;;;;;;4968738;28;20605;-72
2023/04/01 00:34:25;;;;;;;3.25;1.02;;;7.80;99.90;;;;;;4968992;28;20038;-71
2023/04/01 00:36:52;;;;;;;1.67;0.73;;;;;;;;;;4970216;28;20063;-72
2023/04/01 00:39:18;;;;;;;2.33;0.87;;;;;;;;;;4969562;28;20038;-73
2023/04/01 00:41:44;;;;;;;3.15;0.73;;;;;;;;;;5000950;28;20030;-72
2023/04/01 00:44:25;;;;;;;1.08;1.05;;;7.00;92.40;;;;;;4969945;28;20106;-71
2023/04/01 00:46:52;;;;;;;0.65;0.52;;;;;;;;;;4969477;28;20042;-72
2023/04/01 00:49:20;;;;;;;2.83;0.88;;;7.40;97.60;;;;;;4970211;28;20035;-72
2023/04/01 00:51:48;;;;;;;1.95;0.88;;;7.30;92.40;;;;;;4969764;28;20610;-72
2023/04/01 00:54:15;;;;;;;1.50;0.93;;;10.30;93.20;;;;;;4968954;28;20031;-72
2023/04/01 00:57:01;;;;;;;;;;;7.30;92.20;;;;;;4970237;28;20089;-72
2023/04/01 00:59:30;;;;;;;0.70;0.70;;;6.90;92.60;;;;;;4969117;28;20000;-72
2023/04/01 01:01:56;;;;;;;0.82;0.82;;;7.00;96.30;;;;;;4969410;28;20046;-72
2023/04/01 01:04:25;;;;;;;1.58;1.15;;;6.90;94.50;;;;;;4969806;28;20788;-72
2023/04/01 01:06:52;;;;;;;0.90;0.88;;;;;;;;;;4969813;28;20035;-72
2023/04/01 01:09:27;;;;;;;0.98;0.88;;;7.20;99.90;;;;;;4969973;28;20054;-71
2023/04/01 01:12:18;;;;;;;1.33;1.23;;;7.00;93.30;;;;;;4969508;28;20054;-72
2023/04/01 01:14:53;;;;;;;2.20;1.88;;;7.10;99.90;;;;;;4969035;28;20030;-72
2023/04/01 01:17:19;;;;;;;0.52;0.52;;;;;;;;;;4969139;28;20030;-71
2023/04/01 01:20:06;;;;;;;0.57;0.50;;;7.60;99.90;;;;;;4969643;28;20033;-72
2023/04/01 01:22:49;;;;;;;1.42;0.80;;;7.50;92.40;;;;;;4969691;28;20046;-71
2023/04/01 01:25:31;;;;;;;1.13;0.80;;;7.40;92.20;;;;;;4969327;28;20046;-72
2023/04/01 01:28:14;;;;;;;3.67;1.02;;;7.10;99.90;;;;;;4968075;28;20679;-72
2023/04/01 01:31:01;;;;;;;2.22;1.15;;;7.40;92.60;;;;;;4968141;28;20054;-71
2023/04/01 01:33:52;;;;;;;0.90;0.90;;;7.30;99.90;;;;;;4969029;28;20037;-72
2023/04/01 01:36:20;;;;;;;0.63;0.63;;;7.60;92.10;;;;;;4969333;28;20117;-72
2023/04/01 01:38:48;;;;;;;2.50;0.88;;;7.50;93.50;;;;;;4969677;28;20034;-71
2023/04/01 01:41:16;;;;;;;1.38;0.80;;;7.60;92.00;;;;;;4964371;28;20028;-72
2023/04/01 01:43:45;;;;;;;2.25;1.08;;;8.00;93.70;;;;;;4965552;28;20097;-72
2023/04/01 01:46:18;;;;;;;1.10;1.00;;;8.00;89.40;;;;;;4969228;28;20046;-71
2023/04/01 01:48:47;;;;;;;2.78;1.05;;;8.00;99.00;;;;;;4970440;28;20041;-71
2023/04/01 01:51:13;;;;;;;0.90;0.77;;;6.80;89.40;;;;;;4972879;28;20039;-72
2023/04/01 01:53:39;;;;;;;4.00;1.25;;;;;;;;;;4972796;28;20027;-72
2023/04/01 01:56:04;;;;;;;0.65;0.65;;;7.70;99.40;;;;;;4987891;28;20035;-72
2023/04/01 01:58:42;;;;;;;3.15;0.85;;;7.40;99.90;;;;;;4972457;28;20030;-71
2023/04/01 02:01:19;;;;;;;0.65;0.65;;;7.50;91.30;;;;;;4962130;28;20447;-72
2023/04/01 02:03:46;;;;;;;1.88;1.33;;;7.40;99.90;;;;;;4972209;28;20026;-71
2023/04/01 02:06:17;;;;;;;2.05;1.10;;;7.20;92.70;;;;;;4972048;28;20039;-72
2023/04/01 02:08:53;;;;;;;0.80;0.80;;;7.20;99.90;;;;;;4972401;28;20027;-72
2023/04/01 02:11:27;;;;;;;0.82;0.82;;;7.40;96.00;;;;;;4972377;28;20130;-72
2023/04/01 02:14:01;;;;;;;5.35;1.60;;;7.30;92.00;;;;;;4972212;28;20053;-71
2023/04/01 02:16:38;;;;;;;0.70;0.70;;;7.10;93.10;;;;;;4972324;28;20018;-72
2023/04/01 02:19:07;;;;;;;3.67;0.98;;;7.10;94.70;;;;;;4972271;28;20049;-72
2023/04/01 02:21:34;;;;;;;1.30;1.10;;;7.30;91.40;;;;;;4972141;28;20038;-72
2023/04/01 02:24:01;;;;;;;;;;;7.40;91.70;;;;;;4972502;28;20068;-72
2023/04/01 02:26:27;;;;;;;1.13;0.80;;;7.40;94.60;;;;;;4971099;28;20371;-71
2023/04/01 02:28:55;;;;;;;0.75;0.75;;;7.30;91.40;;;;;;4971913;28;20039;-72
2023/04/01 02:31:22;;;;;;;0.82;0.70;;;7.60;91.10;;;;;;4971962;28;20042;-72
2023/04/01 02:33:48;;;;;;;1.55;0.93;;;7.80;90.30;;;;;;4971702;28;20466;-72
2023/04/01 02:36:15;;;;;;;6.40;1.33;;;7.90;89.50;;;;;;4986819;28;20066;-71
2023/04/01 02:38:44;;;;;;;3.15;1.00;;;7.70;88.60;;;;;;4971723;28;20025;-72
2023/04/01 02:41:10;;;;;;;0.60;0.60;;;;;;;;;;4972201;28;20031;-72
2023/04/01 02:43:36;;;;;;;1.38;0.93;;;;;;;;;;4970680;28;20027;-73
2023/04/01 02:46:02;;;;;;;3.35;0.95;;;;;;;;;;4971299;28;20053;-72
2023/04/01 02:48:28;;;;;;;1.40;1.30;;;7.60;97.60;;;;;;4971725;28;20026;-72
2023/04/01 02:50:54;;;;;;;1.65;1.55;;;7.70;98.70;;;;;;4971447;28;20397;-71
2023/04/01 02:53:20;;;;;;;1.92;0.70;;;;;;;;;;4971444;28;20102;-72
2023/04/01 02:55:46;;;;;;;1.83;0.80;;;;;;;;;;4971359;28;20054;-71
2023/04/01 02:58:12;;;;;;;1.00;0.90;;;;;;;;;;4986212;28;20022;-72
2023/04/01 03:00:38;;;;;;;0.60;0.60;;;;;;;;;;4970066;28;20034;-71
2023/04/01 03:03:03;;;;;;;0.77;0.65;;;8.30;91.80;;;;;;4971521;28;20500;-72
2023/04/01 03:05:30;;;;;;;0.57;0.57;;;;;;;;;;4971458;28;20046;-71
2023/04/01 03:07:56;;;;;;;2.85;0.80;;;8.20;91.80;;;;;;4971304;28;20507;-72
2023/04/01 03:10:22;;;;;;;1.23;0.90;;;;;;;;;;4971175;28;20035;-72
2023/04/01 03:12:48;;;;;;;1.80;1.50;;;;;;;;;;4971218;28;20031;-72
2023/04/01 03:15:14;;;;;;;2.47;1.20;;;;;;;;;;4971404;28;20046;-72
2023/04/01 03:17:41;;;;;;;0.52;0.52;;;8.50;90.60;;;;;;4970970;28;20027;-71
2023/04/01 03:20:08;;;;;;;4.43;0.80;;;8.30;97.50;;;;;;4970966;28;20027;-71
2023/04/01 03:22:35;;;;;;;0.52;0.52;;;8.60;86.00;;;;;;4970934;28;20492;-72
2023/04/01 03:25:01;;;;;;;3.67;0.90;;;8.30;97.80;;;;;;4971111;28;20031;-71
2023/04/01 03:27:27;;;;;;;0.52;0.52;;;;;;;;;;4971121;28;20755;-72
2023/04/01 03:29:52;;;;;;;1.08;0.70;;;8.20;97.70;;;;;;4971596;28;20031;-72
2023/04/01 03:32:19;;;;;;;9.80;1.00;;;;;;;;;;4971090;28;20411;-72
2023/04/01 03:34:45;;;;;;;7.63;0.88;;;;;;;;;;4970957;28;20030;-72
2023/04/01 03:37:10;;;;;;;1.85;0.70;;;8.70;97.40;;;;;;4970303;28;20035;-72
2023/04/01 03:39:36;;;;;;;4.07;1.10;;;;;;;;;;4970427;28;20035;-72
2023/04/01 03:42:02;;;;;;;0.70;0.70;;;;;;;;;;4970682;28;20019;-72
2023/04/01 03:44:32;;;;;;;3.50;0.73;;;8.80;96.70;;;;;;4971085;28;20026;-71
2023/04/01 03:46:58;;;;;;;2.95;1.10;;;;;;;;;;4970326;28;20397;-73
2023/04/01 03:49:24;;;;;;;5.55;0.90;;;;;;;;;;4970891;28;20045;-72
2023/04/01 03:51:50;;;;;;;1.42;0.75;;;;;;;;;;4970557;28;20031;-72
2023/04/01 03:54:16;;;;;;;1.35;1.15;;;9.30;90.00;;;;;;4970450;28;20038;-72
2023/04/01 03:56:42;;;;;;;0.85;0.85;;;;;;;;;;4970696;28;20035;-71
2023/04/01 03:59:09;;;;;;;2.60;0.95;;;9.20;81.40;;;;;;4970212;28;20166;-70
2023/04/01 04:01:35;;;;;;;0.68;0.60;;;9.00;95.40;;;;;;4970192;28;20549;-72
2023/04/01 04:04:01;;;;;;;1.27;0.68;;;;;;;;;;4970650;28;20031;-72
2023/04/01 04:06:27;;;;;;;1.45;0.60;;;9.20;81.80;;;;;;4970268;28;20102;-72
2023/04/01 04:08:53;;;;;;;4.28;1.00;;;9.40;95.60;;;;;;4970269;28;20081;-72
2023/04/01 04:11:19;;;;;;;5.18;0.80;;;9.10;87.70;;;;;;4970053;28;20563;-72
2023/04/01 04:13:47;;;;;;;4.93;1.00;;;;;;;;;;4970164;28;20118;-72
2023/04/01 04:16:13;;;;;;;;;;;9.30;81.40;;;;;;4970055;28;20039;-71
2023/04/01 04:18:39;;;;;;;1.05;0.80;;;;;;;;;;4985139;28;20296;-72
2023/04/01 04:21:04;;;;;;;3.13;0.85;;;9.50;95.20;;;;;;4969907;28;20030;-71
2023/04/01 04:23:33;;;;;;;1.90;0.68;;;9.40;95.10;;;;;;4969965;28;20400;-71
2023/04/01 04:26:01;;;;;;;1.55;0.60;;;9.50;82.80;;;;;;4970052;28;20035;-72
2023/04/01 04:28:27;;;;;;;2.15;0.82;;;9.70;90.00;;;;;;4970358;28;20101;-71
2023/04/01 04:30:54;;;;;;;1.25;0.80;;;9.70;79.30;;;;;;4969891;28;20050;-72
2023/04/01 04:33:20;;;;;;;5.25;0.70;;;;;;;;;;4969740;28;20165;-73
2023/04/01 04:35:46;;;;;;;2.22;0.70;;;;;;;;;;4969240;28;20026;-71
2023/04/01 04:38:12;;;;;;;0.65;0.50;;;;;;;;;;4984406;28;20057;-72
2023/04/01 04:40:38;;;;;;;6.95;1.40;;;8.60;79.50;;;;;;4969202;28;20039;-72
2023/04/01 04:43:04;;;;;;;0.50;0.50;;;;;;;;;;4970377;28;20027;-72
2023/04/01 04:45:30;;;;;;;2.22;0.82;;;9.10;94.90;;;;;;4969585;28;20024;-71
2023/04/01 04:47:56;;;;;;;1.52;0.80;;;9.80;88.20;;;;;;4969640;28;20060;-71
2023/04/01 04:50:22;;;;;;;0.90;0.90;;;9.30;89.70;;;;;;4969684;28;20031;-71
2023/04/01 04:52:48;;;;;;;1.42;0.70;;;;;;;;;;4963611;28;20500;-72
2023/04/01 04:55:15;;;;;;;1.27;0.80;;;9.20;94.30;;;;;;4961396;28;20058;-72
2023/04/01 04:57:41;;;;;;;4.53;1.00;;;;;;;;;;4969602;28;20090;-72
2023/04/01 05:00:07;;;;;;;1.25;0.57;;;9.10;92.40;;;;;;4970026;28;20031;-72
2023/04/01 05:02:33;;;;;;;1.10;0.60;;;;;;;;;;4969824;28;20025;-72
2023/04/01 05:04:59;;;;;;;1.23;1.13;;;9.40;94.80;;;;;;4969822;28;20041;-71
2023/04/01 05:07:24;;;;;;;0.60;0.57;;;9.50;96.20;;;;;;4969634;28;20403;-72
2023/04/01 05:09:50;;;;;;;3.65;0.70;;;9.40;91.00;;;;;;4969869;28;20030;-71
2023/04/01 05:12:16;;;;;;;2.40;0.82;;;;;;;;;;4969448;28;20121;-72
2023/04/01 05:14:42;;;;;;;1.15;1.05;;;;;;;;;;4956336;28;20118;-71
2023/04/01 05:17:11;;;;;;;1.80;1.10;;;8.80;92.90;;;;;;4966109;28;20026;-71
2023/04/01 05:19:38;;;;;;;2.17;0.80;;;9.00;84.30;;;;;;4968935;28;20026;-71
2023/04/01 05:22:04;;;;;;;4.47;0.88;;;9.10;84.00;;;;;;4962808;28;20047;-71
2023/04/01 05:24:30;;;;;;;0.75;0.75;;;;;;;;;;4966722;28;20019;-71
2023/04/01 05:26:57;;;;;;;2.47;1.05;;;;;;;;;;4972887;28;20416;-71
2023/04/01 05:29:23;;;;;;;3.50;0.87;;;;;;;;;;4973241;28;20030;-70
2023/04/01 05:31:49;;;;;;;0.82;0.70;;;9.30;90.70;;;;;;4972842;28;20046;-72
2023/04/01 05:34:14;;;;;;;3.78;1.52;;;9.10;95.00;;;;;;4972579;28;20404;-71
2023/04/01 05:36:41;;;;;;;0.65;0.65;;;9.30;96.40;;;;;;4968408;28;20027;-71
2023/04/01 05:39:07;;;;;;;0.80;0.80;;;9.40;96.10;;;;;;4969617;28;20031;-71
2023/04/01 05:41:36;;;;;;;1.60;0.88;;;9.50;82.20;;;;;;4963509;28;20497;-72
2023/04/01 05:44:02;;;;;;;4.40;1.30;;;;;;;;;;4973341;28;20437;-71
2023/04/01 05:46:28;;;;;;;3.58;0.90;;;;;;;;;;4987521;28;20419;-72
2023/04/01 05:48:54;;;;;;;4.57;1.98;;;;;;;;;;4971728;28;20050;-72
2023/04/01 05:51:20;;;;;;;2.63;1.17;;;;;;;;;;4961065;28;20050;-72
2023/04/01 05:53:46;;;;;;;2.47;1.83;;;;;;;;;;4962956;28;20019;-72
2023/04/01 05:56:11;;;;;;;1.35;1.08;;;9.50;82.00;;;;;;4966299;28;20035;-71
2023/04/01 05:58:38;;;;;;;6.78;1.48;;;;;;;;;;4972767;28;20046;-72
2023/04/01 06:01:06;;;;;;;2.35;1.00;;;9.50;82.50;;;;;;4965615;28;20035;-72
2023/04/01 06:03:32;;;;;;;5.80;2.00;;;9.40;94.00;;;;;;4971945;28;20027;-71
2023/04/01 06:05:57;;;;;;;1.45;1.00;;;9.20;91.20;;;;;;4962680;28;20030;-72
2023/04/01 06:08:24;;;;;;;1.40;0.85;;;9.30;83.60;;;;;;4968153;28;20042;-72
2023/04/01 06:11:27;;;;;;;2.28;1.38;;;9.30;84.30;;;;;;4956264;28;20039;-72
2023/04/01 06:14:00;;;;;;;1.42;0.80;;;9.80;87.20;;;;;;4965164;28;20554;-71
2023/04/01 06:16:58;;;;;;;1.38;1.02;;;9.20;86.60;;;;;;4963393;28;20443;-72
2023/04/01 06:19:47;;;;;;;1.30;0.70;;;9.20;86.70;;;;;;4968200;28;20058;-72
2023/04/01 06:22:43;;;;;;;3.10;0.93;;;9.40;86.30;;;;;;4959629;28;20035;-71
2023/04/01 06:25:30;;;;;;;0.93;0.93;;;9.50;85.60;;;;;;4970103;28;20045;-71
2023/04/01 06:28:18;;;;;;;1.15;1.00;;;10.00;89.80;;;;;;4971308;28;20023;-71
2023/04/01 06:31:15;;;;;;;1.88;1.63;;;12.30;81.60;;;;;;4961457;28;20031;-71
2023/04/01 06:34:08;;;;;;;4.70;1.40;;;17.30;60.40;;;;;;4987752;28;20551;-72
2023/04/01 06:36:48;;;;;;;2.75;2.40;;;17.70;57.90;;;;;;4972366;28;20154;-71
2023/04/01 06:39:40;;;;;;;3.72;2.03;;;19.10;72.30;;;;;;4988867;28;20043;-72
2023/04/01 06:42:06;;;;;;;1.55;0.95;;;;;;;;;;4988688;28;20038;-72
2023/04/01 06:44:34;;;;;;;1.67;0.85;;;18.60;62.90;;;;;;4984336;28;20039;-71
2023/04/01 06:47:19;;;;;;;2.35;0.80;;;16.70;69.00;;;;;;4985943;28;20157;-71
2023/04/01 06:49:51;;;;;;;0.90;0.90;;;15.80;78.10;;;;;;4986929;28;20117;-72
2023/04/01 06:52:34;;;;;;;1.88;0.88;;;15.60;60.50;;;;;;4977043;28;20450;-71
2023/04/01 06:55:21;;;;;;;1.33;0.80;;;17.10;59.30;;;;;;4988185;28;20018;-72
2023/04/01 06:57:53;;;;;;;1.60;1.15;;;17.40;60.60;;;;;;4988243;28;20034;-73
2023/04/01 07:00:27;;;;;;;1.20;0.90;;;16.90;64.90;;;;;;4988057;28;20089;-72
2023/04/01 07:03:09;;;;;;;1.33;0.80;;;16.10;74.80;;;;;;4987076;28;20042;-72
2023/04/01 07:05:35;;;;;;;0.93;0.85;;;;;;;;;;4986757;28;20081;-72
2023/04/01 07:08:09;;;;;;;2.03;1.00;;;14.10;60.20;;;;;;4987844;28;20031;-72
2023/04/01 07:10:47;;;;;;;1.05;0.82;;;13.50;62.90;;;;;;4979680;28;20127;-72
2023/04/01 07:13:30;;;;;;;5.40;2.05;;;13.00;64.70;;;;;;4969213;28;20035;-71
2023/04/01 07:16:12;;;;;;;0.82;0.82;;;12.70;72.50;;;;;;4970439;28;20416;-71
2023/04/01 07:18:47;;;;;;;1.25;1.02;;;12.90;85.20;;;;;;4964173;28;20043;-71
2023/04/01 07:21:41;;;;;;;0.90;0.90;;;12.90;66.10;;;;;;4962291;28;20057;-71
2023/04/01 07:24:17;;;;;;;3.53;1.27;;;13.10;65.20;;;;;;4970431;28;20031;-71
2023/04/01 07:26:42;;;;;;;2.55;1.40;;;14.40;71.60;;;;;;4963347;28;20031;-72
2023/04/01 07:29:12;;;;;;;3.03;1.50;;;21.50;68.00;;;;;;4959579;28;20121;-74
2023/04/01 07:32:00;;;;;;;1.60;1.30;;;21.50;47.70;;;;;;4956996;28;20054;-73
2023/04/01 07:34:35;;;;;;;1.48;1.05;;;19.60;57.90;;;;;;4961612;28;20043;-72
2023/04/01 07:37:18;;;;;;;3.05;1.55;;;18.20;51.90;;;;;;4969903;28;20026;-72
2023/04/01 07:39:55;;;;;;;1.42;1.20;;;;;;;;;;4962710;28;20037;-72
2023/04/01 07:42:21;;;;;;;0.80;0.80;;;;;;;;;;4960719;28;20037;-72
2023/04/01 07:44:58;;;;;;;1.65;1.08;;;14.70;57.80;;;;;;4967015;28;20031;-72
2023/04/01 07:47:46;;;;;;;3.10;0.95;;;13.70;77.60;;;;;;4958878;28;20051;-72
2023/04/01 07:50:28;;;;;;;1.55;1.00;;;13.50;61.40;;;;;;4962179;28;20035;-71
2023/04/01 07:53:15;;;;;;;0.90;0.82;;;13.60;66.40;;;;;;4970492;28;20047;-70
2023/04/01 07:56:11;;;;;;;2.50;0.80;;;13.30;60.50;;;;;;4960843;28;20354;-71
2023/04/01 07:58:46;;;;;;;0.80;0.80;;;13.20;61.10;;;;;;4958095;28;20026;-71
2023/04/01 08:01:39;;;;;;;3.08;0.75;;;12.90;65.80;;;;;;4969284;28;20069;-71
2023/04/01 08:04:30;;;;;;;5.03;0.90;;;13.20;61.00;;;;;;4968565;28;20030;-71
2023/04/01 08:07:02;;;;;;;0.93;0.93;;;13.10;61.20;;;;;;4970695;28;20102;-71
2023/04/01 08:09:39;;;;;;;1.63;1.42;;;13.30;61.10;;;;;;4970163;28;20085;-72
2023/04/01 08:12:14;;;;;;;0.90;0.90;;;13.90;60.40;;;;;;4969781;28;20039;-71
2023/04/01 08:15:04;;;;;;;1.33;0.82;;;14.00;72.30;;;;;;4970573;28;20026;-71
2023/04/01 08:17:54;;;;;;;4.88;1.95;;;13.60;60.10;;;;;;4970033;28;20481;-71
2023/04/01 08:20:48;;;;;;;0.90;0.90;;;13.00;80.10;;;;;;4969661;28;20058;-71
2023/04/01 08:23:25;;;;;;;3.45;0.93;;;12.80;61.50;;;;;;4969757;28;20049;-71
2023/04/01 08:26:03;;;;;;;3.55;1.20;;;13.00;68.50;;;;;;4966108;28;20038;-71
2023/04/01 08:28:51;;;;;;;1.30;1.15;;;12.50;64.10;;;;;;4972899;28;20120;-71
2023/04/01 08:31:16;;;;;;;0.70;0.70;;;12.60;85.20;;;;;;4961933;28;20563;-71
2023/04/01 08:33:46;;;;;;;0.70;0.70;;;12.10;67.70;;;;;;4956362;28;20062;-71
2023/04/01 08:36:23;;;;;;;1.10;1.00;;;12.60;69.40;;;;;;4959662;28;20496;-71
2023/04/01 08:38:57;;;;;;;2.75;2.08;;;12.30;77.40;;;;;;4960553;28;20019;-71
2023/04/01 08:41:44;;;;;;;3.58;2.35;;;12.30;89.80;;;;;;4963797;28;20045;-71
2023/04/01 08:44:52;;;;;;;2.33;1.80;;;12.50;75.50;;;;;;4959501;28;20027;-71
2023/04/01 08:47:46;;;;;;;1.00;0.95;;;13.40;77.00;;;;;;4968236;28;20820;-74
2023/04/01 08:50:30;;;;;;;1.20;1.20;;;13.90;64.60;;;;;;4967223;28;20377;-74
2023/04/01 08:53:09;;;;;;;2.78;1.83;;;14.10;64.10;;;;;;4963846;28;20039;-74
2023/04/01 08:55:55;;;;;;;0.80;0.80;;;14.40;75.50;;;;;;4968437;28;20058;-72
2023/04/01 08:58:52;;;;;;;1.10;1.00;;;14.30;63.10;;;;;;4968146;28;20035;-72
2023/04/01 09:01:18;;;;;;;0.98;0.98;;;13.80;82.30;;;;;;4989006;28;20045;-72
2023/04/01 09:03:57;;;;;;;1.67;1.10;;;13.70;66.90;;;;;;4988477;28;20058;-72
2023/04/01 09:06:39;;;;;;;1.88;1.38;;;13.80;65.20;;;;;;4988003;28;20034;-72
2023/04/01 09:09:05;;;;;;;3.35;1.67;;;;;;;;;;4988831;28;20041;-72
2023/04/01 09:11:57;;;;;;;2.83;1.20;;;14.00;69.40;;;;;;4988711;28;20038;-73
2023/04/01 09:14:51;;;;;;;1.20;1.00;;;14.70;64.60;;;;;;4987454;28;20022;-72
2023/04/01 09:17:44;;;;;;;1.83;1.00;;;14.50;63.10;;;;;;4948952;29;20053;-72
2023/04/01 09:20:10;;;;;;;1.58;1.10;;;;;;;;;;4949702;29;20428;-72
2023/04/01 09:22:42;;;;;;;3.15;1.42;;;17.70;61.30;;;;;;4948326;29;20039;-72
2023/04/01 09:25:22;;;;;;;1.25;1.15;;;19.50;62.90;;;;;;4949430;29;20043;-72
2023/04/01 09:28:10;;;;;;;1.70;1.60;;;21.20;64.60;;;;;;4949239;29;20031;-72
2023/04/01 09:31:17;;;;;;;1.17;1.08;;;20.70;49.90;;;;;;4948613;29;20581;-73
2023/04/01 09:34:19;;;;;;;3.50;1.30;;;19.20;53.20;;;;;;4942848;29;20405;-73
2023/04/01 09:36:47;;;;;;;1.77;1.15;;;18.40;70.30;;;;;;4946940;29;20031;-73
2023/04/01 09:39:22;;;;;;;3.40;1.98;;;20.60;53.60;;;;;;4930303;29;20071;-72
2023/04/01 09:41:53;;;;;;;2.00;1.90;;;24.00;60.50;;;;;;4915099;29;20149;-73
2023/04/01 09:44:23;;;;;;;2.97;1.70;;;25.50;40.90;;;;;;4920056;29;20643;-72
2023/04/01 09:47:06;;;;;;;3.65;2.33;;;25.20;47.40;;;;;;4915274;29;20528;-73
2023/04/01 09:49:59;;;;;;;4.80;2.40;;;24.10;42.70;;;;;;4921467;29;20904;-73
2023/04/01 09:53:02;;;;;;;2.45;1.70;;;24.90;55.10;;;;;;4919885;29;20116;-73
2023/04/01 09:56:05;;;;;;;5.03;1.65;;;24.40;38.40;;;;;;4990996;28;20058;-73
2023/04/01 09:58:33;;;;;;;1.40;1.10;;;28.80;44.60;;;;;;4989662;28;20026;-73
2023/04/01 10:01:11;;;;;;;33.65;9.27;;;30.00;39.90;;;;;;4983647;28;20053;-73
2023/04/01 10:04:06;;;;;;;8.77;2.70;;;26.70;35.20;;;;;;4982562;28;20030;-73
2023/04/01 10:07:03;;;;;;;2.08;1.10;;;23.50;39.00;;;;;;4972025;28;20196;-74
2023/04/01 10:09:34;;;;;;;;;;;22.50;39.90;;;;;;4987452;28;20584;-73
2023/04/01 10:12:00;;;;;;;2.05;1.20;;;;;;;;;;4988114;28;20402;-73
2023/04/01 10:14:36;;;;;;;1.73;0.80;;;19.90;62.50;;;;;;4988019;28;20030;-73
2023/04/01 10:17:28;;;;;;;5.80;2.88;;;18.80;46.90;;;;;;4987992;28;20026;-73
2023/04/01 10:20:37;;;;;;;3.47;2.28;;;19.00;47.20;;;;;;4984067;28;20057;-73
2023/04/01 10:23:34;;;;;;;13.95;6.50;;;20.60;57.00;;;;;;4977163;28;20034;-73
2023/04/01 10:26:28;;;;;;;7.85;3.72;;;23.70;57.20;;;;;;4979906;28;20585;-73
2023/04/01 10:29:09;;;;;;;8.25;4.05;;;25.60;37.50;;;;;;4987889;28;20031;-73
2023/04/01 10:31:53;;;;;;;8.43;2.65;;;27.40;50.00;;;;;;4978524;28;20053;-73
2023/04/01 10:34:37;;;;;;;1.83;1.10;;;29.80;33.70;;;;;;4958810;28;20483;-73
2023/04/01 10:37:32;;;;;;;3.75;1.63;;;29.20;33.20;;;;;;4965998;28;20026;-74
2023/04/01 10:40:20;;;;;;;0.68;0.52;;;27.40;48.80;;;;;;4972747;28;20046;-73
2023/04/01 10:43:25;;;;;;;4.88;2.45;;;25.50;40.40;;;;;;4961354;28;20038;-73
2023/04/01 10:46:00;;;;;;;7.70;5.95;;;22.90;38.40;;;;;;4957627;28;20026;-73
2023/04/01 10:49:00;;;;;;;3.35;2.17;;;20.80;41.50;;;;;;4956633;28;20039;-73
2023/04/01 10:51:46;;;;;;;2.00;1.00;;;19.50;43.30;;;;;;4967818;28;20034;-73
2023/04/01 10:54:18;;;;;;;1.70;1.02;;;19.60;44.00;;;;;;4961188;28;20037;-72
2023/04/01 10:56:58;;;;;;;1.27;1.13;;;19.70;43.70;;;;;;4969808;28;20030;-73
2023/04/01 11:00:01;;;;;;;4.85;1.23;;;19.50;47.60;;;;;;4960698;28;20023;-74
2023/04/01 11:02:55;;;;;;;0.77;0.77;;;19.70;44.10;;;;;;4964594;28;20627;-73
2023/04/01 11:05:20;;;;;;;1.30;1.20;;;20.50;50.10;;;;;;4968463;28;20027;-72
2023/04/01 11:08:24;;;;;;;1.13;0.90;;;20.70;59.60;;;;;;4971283;28;20678;-73
2023/04/01 11:11:25;;;;;;;1.00;1.00;;;20.30;45.50;;;;;;4965705;28;20108;-73
2023/04/01 11:14:17;;;;;;;0.98;0.98;;;20.20;43.60;;;;;;4960645;28;20039;-73
2023/04/01 11:17:07;;;;;;;1.63;0.95;;;21.20;52.70;;;;;;4967510;28;20039;-73
2023/04/01 11:19:54;;;;;;;2.33;2.00;;;23.80;50.70;;;;;;4970032;28;20109;-74
2023/04/01 11:22:47;;;;;;;2.35;1.30;;;26.90;45.20;;;;;;4967672;28;20038;-73
2023/04/01 11:25:34;;;;;;;2.40;0.85;;;27.30;35.90;;;;;;4971111;28;20026;-73
2023/04/01 11:28:15;;;;;;;1.33;0.50;;;25.90;50.30;;;;;;4959691;28;20440;-73
2023/04/01 11:31:05;;;;;;;2.10;0.63;;;23.30;36.30;;;;;;4971177;28;20026;-73
2023/04/01 11:33:40;;;;;;;0.75;0.50;;;22.60;39.10;;;;;;4970999;28;20524;-73
2023/04/01 11:36:27;;;;;;;0.57;0.50;;;22.00;49.00;;;;;;4959935;28;20031;-73
2023/04/01 11:38:52;;;;;;;0.68;0.50;;;;;;;;;;4970778;28;20440;-73
2023/04/01 11:41:41;;;;;;;0.55;0.47;;;21.00;58.50;;;;;;4970727;28;20082;-73
2023/04/01 11:44:19;;;;;;;1.02;0.75;;;20.40;42.80;;;;;;4970919;28;20030;-74
2023/04/01 11:47:15;;;;;;;0.52;0.52;;;20.40;42.50;;;;;;4970394;28;20059;-73
2023/04/01 11:49:59;;;;;;;0.80;0.80;;;20.40;42.40;;;;;;4970775;28;20115;-72
2023/04/01 11:52:40;;;;;;;1.30;1.00;;;20.70;58.50;;;;;;4960011;28;20485;-73
2023/04/01 11:55:19;;;;;;;0.77;0.77;;;20.00;43.70;;;;;;4970555;28;20027;-73
2023/04/01 11:58:09;;;;;;;1.45;1.33;;;22.50;41.10;;;;;;4968987;28;20034;-74
2023/04/01 12:00:44;;;;;;;0.77;0.77;;;24.80;44.10;;;;;;4960929;28;20015;-74
2023/04/01 12:03:33;;;;;;;0.98;0.98;;;26.10;36.80;;;;;;4970368;28;20045;-74
2023/04/01 12:06:05;;;;;;;5.32;2.88;;;28.20;32.80;;;;;;4970497;28;20022;-73
2023/04/01 12:08:31;;;;;;;1.02;0.98;;;;;;;;;;4984972;28;20031;-73
2023/04/01 12:11:34;;;;;;;1.52;0.50;;;28.30;46.50;;;;;;4970095;28;20058;-73
2023/04/01 12:14:12;;;;;;;6.50;2.22;;;26.00;33.40;;;;;;4970500;28;20138;-72
2023/04/01 12:17:21;;;;;;;12.38;3.50;;;25.00;34.50;;;;;;4970259;28;20117;-73
2023/04/01 12:20:23;;;;;;;1.90;1.30;;;23.70;36.00;;;;;;4986437;28;20065;-73
2023/04/01 12:23:15;;;;;;;1.45;0.60;;;22.80;37.40;;;;;;4986278;28;20038;-73
2023/04/01 12:25:47;;;;;;;0.90;0.90;;;22.70;37.80;;;;;;4986618;28;20030;-73
2023/04/01 12:28:30;;;;;;;1.52;0.60;;;23.40;37.00;;;;;;4986698;28;20565;-72
2023/04/01 12:31:26;;;;;;;1.38;0.70;;;22.80;53.30;;;;;;4986503;28;20066;-72
2023/04/01 12:34:29;;;;;;;0.93;0.57;;;21.80;43.00;;;;;;4965076;28;20034;-72
2023/04/01 12:36:57;;;;;;;1.80;0.98;;;22.40;54.00;;;;;;4986112;28;20067;-73
2023/04/01 12:39:36;;;;;;;0.65;0.65;;;23.60;45.00;;;;;;4986367;28;20048;-73
2023/04/01 12:42:36;;;;;;;0.60;0.60;;;23.70;51.60;;;;;;4986600;28;20046;-72
2023/04/01 12:45:21;;;;;;;0.82;0.70;;;23.30;51.50;;;;;;4987079;28;20033;-73
2023/04/01 12:48:01;;;;;;;0.73;0.50;;;23.10;51.80;;;;;;4986509;28;20061;-73
2023/04/01 12:50:27;;;;;;;0.50;0.50;;;;;;;;;;4985757;28;20065;-72
2023/04/01 12:53:16;;;;;;;0.50;0.50;;;22.30;40.60;;;;;;4986276;28;20066;-73
2023/04/01 12:55:50;;;;;;;0.60;0.60;;;21.40;47.80;;;;;;4975296;28;20039;-73
2023/04/01 12:58:21;;;;;;;1.48;0.70;;;21.50;39.00;;;;;;4969175;28;20037;-73
2023/04/01 13:01:17;;;;;;;0.70;0.70;;;22.40;37.90;;;;;;4970076;28;20420;-73
2023/04/01 13:04:01;;;;;;;0.95;0.65;;;21.90;43.70;;;;;;4969587;28;20031;-73
2023/04/01 13:06:41;;;;;;;0.80;0.80;;;21.30;55.50;;;;;;4969486;28;20030;-72
2023/04/01 13:09:18;;;;;;;0.60;0.60;;;20.80;40.00;;;;;;4969725;28;20027;-73
2023/04/01 13:12:16;;;;;;;0.75;0.50;;;18.60;41.00;;;;;;4969619;28;20143;-73
2023/04/01 13:15:08;;;;;;;0.70;0.70;;;19.30;42.80;;;;;;4970077;28;20027;-73
2023/04/01 13:18:03;;;;;;;0.60;0.60;;;18.80;43.40;;;;;;4969271;28;20443;-73
2023/04/01 13:20:53;;;;;;;0.57;0.57;;;17.90;45.50;;;;;;4969312;28;20058;-72
2023/04/01 13:23:19;;;;;;;2.13;0.73;;;;;;;;;;5000734;28;20047;-72
2023/04/01 13:26:04;;;;;;;0.60;0.60;;;16.50;47.70;;;;;;4969471;28;20105;-72
2023/04/01 13:29:13;;;;;;;2.75;0.85;;;16.00;50.20;;;;;;4969414;28;20034;-73
2023/04/01 13:31:39;;;;;;;0.82;0.82;;;;;;;;;;5005634;28;20046;-75
2023/04/01 13:34:24;;;;;;;0.80;0.80;;;14.30;58.60;;;;;;5005290;28;20116;-73
2023/04/01 13:37:11;;;;;;;1.20;1.10;;;13.50;67.70;;;;;;5004772;28;20030;-72
2023/04/01 13:39:46;;;;;;;;;;;13.00;69.60;;;;;;5006179;28;20053;-72
2023/04/01 13:42:12;;;;;;;0.65;0.65;;;;;;;;;;5021744;28;19906;-72
2023/04/01 13:44:53;;;;;;;0.80;0.80;;;12.70;88.70;;;;;;5007127;28;20022;-72
2023/04/01 13:47:39;;;;;;;0.80;0.80;;;13.20;67.50;;;;;;4992851;28;20111;-73
2023/04/01 13:50:17;;;;;;;0.80;0.80;;;13.40;87.70;;;;;;5007745;28;20030;-72
2023/04/01 13:53:03;;;;;;;;;;;13.30;69.90;;;;;;5009220;28;20518;-73
2023/04/01 13:55:43;;;;;;;0.70;0.70;;;13.00;71.00;;;;;;5009230;28;19917;-71
2023/04/01 13:58:36;;;;;;;0.70;0.70;;;12.80;68.50;;;;;;5008146;28;20026;-72
2023/04/01 14:01:31;;;;;;;0.70;0.70;;;12.70;89.10;;;;;;5009001;28;20049;-71